sensor_id;sensor_type;location;lat;lon;timestamp;P1;durP1;ratioP1;P2;durP2;ratioP2
3177;SDS011;38141;42.666;23.344;2023-04-26T00:01:34;12.40;;;7.80;;
3177;SDS011;38141;42.666;23.344;2023-04-26T00:04:01;10.43;;;7.00;;
3177;SDS011;38141;42.666;23.344;2023-04-26T00:06:28;11.67;;;7.17;;
3177;SDS011;38141;42.666;23.344;2023-04-26T00:08:55;13.47;;;7.10;;
3177;SDS011;38141;42.666;23.344;2023-04-26T00:11:23;17.00;;;8.77;;
3177;SDS011;38141;42.666;23.344;2023-04-26T00:13:50;13.30;;;8.20;;
3177;SDS011;38141;42.666;23.344;2023-04-26T00:16:16;11.70;;;8.07;;
3177;SDS011;38141;42.666;23.344;2023-04-26T00:18:45;11.40;;;7.53;;
3177;SDS011;38141;42.666;23.344;2023-04-26T00:21:13;10.50;;;7.10;;
3177;SDS011;38141;42.666;23.344;2023-04-26T00:23:40;12.23;;;7.50;;
3177;SDS011;38141;42.666;23.344;2023-04-26T00:26:07;11.67;;;8.40;;
3177;SDS011;38141;42.666;23.344;2023-04-26T00:28:35;12.87;;;8.13;;
3177;SDS011;38141;42.666;23.344;2023-04-26T00:31:02;16.77;;;9.00;;
3177;SDS011;38141;42.666;23.344;2023-04-26T00:33:28;15.73;;;10.60;;
3177;SDS011;38141;42.666;23.344;2023-04-26T00:35:55;13.77;;;9.43;;
3177;SDS011;38141;42.666;23.344;2023-04-26T00:38:22;31.27;;;16.10;;
3177;SDS011;38141;42.666;23.344;2023-04-26T00:40:49;18.13;;;11.33;;
3177;SDS011;38141;42.666;23.344;2023-04-26T00:43:15;17.87;;;10.70;;
3177;SDS011;38141;42.666;23.344;2023-04-26T00:45:44;15.57;;;9.00;;
3177;SDS011;38141;42.666;23.344;2023-04-26T00:48:11;17.87;;;10.30;;
3177;SDS011;38141;42.666;23.344;2023-04-26T00:50:38;18.20;;;10.40;;
3177;SDS011;38141;42.666;23.344;2023-04-26T00:53:05;18.97;;;10.57;;
3177;SDS011;38141;42.666;23.344;2023-04-26T00:55:33;20.83;;;11.20;;
3177;SDS011;38141;42.666;23.344;2023-04-26T00:58:00;17.30;;;9.87;;
3177;SDS011;38141;42.666;23.344;2023-04-26T01:00:27;15.20;;;9.23;;
3177;SDS011;38141;42.666;23.344;2023-04-26T01:02:55;15.43;;;9.23;;
3177;SDS011;38141;42.666;23.344;2023-04-26T01:05:22;19.00;;;9.90;;
3177;SDS011;38141;42.666;23.344;2023-04-26T01:07:49;18.23;;;9.27;;
3177;SDS011;38141;42.666;23.344;2023-04-26T01:10:17;19.00;;;9.70;;
3177;SDS011;38141;42.666;23.344;2023-04-26T01:12:44;15.97;;;9.93;;
3177;SDS011;38141;42.666;23.344;2023-04-26T01:15:12;16.50;;;9.57;;
3177;SDS011;38141;42.666;23.344;2023-04-26T01:17:39;15.70;;;9.53;;
3177;SDS011;38141;42.666;23.344;2023-04-26T01:20:07;18.80;;;9.90;;
3177;SDS011;38141;42.666;23.344;2023-04-26T01:22:37;17.30;;;9.50;;
3177;SDS011;38141;42.666;23.344;2023-04-26T01:25:04;13.27;;;8.73;;
3177;SDS011;38141;42.666;23.344;2023-04-26T01:27:33;22.70;;;9.90;;
3177;SDS011;38141;42.666;23.344;2023-04-26T01:30:00;16.80;;;9.87;;
3177;SDS011;38141;42.666;23.344;2023-04-26T01:32:27;14.83;;;9.60;;
3177;SDS011;38141;42.666;23.344;2023-04-26T01:34:54;17.07;;;9.13;;
3177;SDS011;38141;42.666;23.344;2023-04-26T01:37:21;18.13;;;10.50;;
3177;SDS011;38141;42.666;23.344;2023-04-26T01:39:50;17.07;;;8.90;;
3177;SDS011;38141;42.666;23.344;2023-04-26T01:42:17;15.90;;;9.50;;
3177;SDS011;38141;42.666;23.344;2023-04-26T01:44:43;18.77;;;10.73;;
3177;SDS011;38141;42.666;23.344;2023-04-26T01:47:10;19.07;;;10.57;;
3177;SDS011;38141;42.666;23.344;2023-04-26T01:49:37;17.13;;;9.50;;
3177;SDS011;38141;42.666;23.344;2023-04-26T01:52:05;17.40;;;9.83;;
3177;SDS011;38141;42.666;23.344;2023-04-26T01:54:32;15.23;;;9.00;;
3177;SDS011;38141;42.666;23.344;2023-04-26T01:57:00;16.07;;;9.27;;
3177;SDS011;38141;42.666;23.344;2023-04-26T01:59:27;16.30;;;9.33;;
3177;SDS011;38141;42.666;23.344;2023-04-26T02:01:54;13.07;;;7.80;;
3177;SDS011;38141;42.666;23.344;2023-04-26T02:04:21;16.43;;;9.60;;
3177;SDS011;38141;42.666;23.344;2023-04-26T02:06:49;13.73;;;8.90;;
3177;SDS011;38141;42.666;23.344;2023-04-26T02:09:16;16.90;;;9.20;;
3177;SDS011;38141;42.666;23.344;2023-04-26T02:11:43;14.60;;;9.10;;
3177;SDS011;38141;42.666;23.344;2023-04-26T02:14:11;14.73;;;9.30;;
3177;SDS011;38141;42.666;23.344;2023-04-26T02:16:39;14.90;;;8.73;;
3177;SDS011;38141;42.666;23.344;2023-04-26T02:19:06;15.50;;;9.40;;
3177;SDS011;38141;42.666;23.344;2023-04-26T02:21:48;14.47;;;8.93;;
3177;SDS011;38141;42.666;23.344;2023-04-26T02:24:16;16.10;;;10.00;;
3177;SDS011;38141;42.666;23.344;2023-04-26T02:26:43;15.63;;;8.87;;
3177;SDS011;38141;42.666;23.344;2023-04-26T02:29:11;15.43;;;9.30;;
3177;SDS011;38141;42.666;23.344;2023-04-26T02:31:38;15.73;;;10.03;;
3177;SDS011;38141;42.666;23.344;2023-04-26T02:34:05;15.53;;;9.30;;
3177;SDS011;38141;42.666;23.344;2023-04-26T02:36:31;17.07;;;9.70;;
3177;SDS011;38141;42.666;23.344;2023-04-26T02:38:58;15.47;;;9.50;;
3177;SDS011;38141;42.666;23.344;2023-04-26T02:41:25;16.37;;;10.60;;
3177;SDS011;38141;42.666;23.344;2023-04-26T02:43:52;18.40;;;10.97;;
3177;SDS011;38141;42.666;23.344;2023-04-26T02:46:20;18.30;;;10.40;;
3177;SDS011;38141;42.666;23.344;2023-04-26T02:48:47;20.63;;;10.80;;
3177;SDS011;38141;42.666;23.344;2023-04-26T02:51:14;18.10;;;9.90;;
3177;SDS011;38141;42.666;23.344;2023-04-26T02:53:41;19.50;;;9.63;;
3177;SDS011;38141;42.666;23.344;2023-04-26T02:56:07;16.80;;;9.90;;
3177;SDS011;38141;42.666;23.344;2023-04-26T02:58:35;13.77;;;8.50;;
3177;SDS011;38141;42.666;23.344;2023-04-26T03:01:02;21.40;;;10.50;;
3177;SDS011;38141;42.666;23.344;2023-04-26T03:03:31;14.10;;;9.40;;
3177;SDS011;38141;42.666;23.344;2023-04-26T03:05:57;15.47;;;9.50;;
3177;SDS011;38141;42.666;23.344;2023-04-26T03:08:24;18.20;;;10.33;;
3177;SDS011;38141;42.666;23.344;2023-04-26T03:10:51;17.73;;;10.07;;
3177;SDS011;38141;42.666;23.344;2023-04-26T03:13:18;17.70;;;10.00;;
3177;SDS011;38141;42.666;23.344;2023-04-26T03:15:44;19.17;;;9.93;;
3177;SDS011;38141;42.666;23.344;2023-04-26T03:18:11;18.33;;;9.83;;
3177;SDS011;38141;42.666;23.344;2023-04-26T03:20:40;23.80;;;12.20;;
3177;SDS011;38141;42.666;23.344;2023-04-26T03:23:07;17.70;;;10.20;;
3177;SDS011;38141;42.666;23.344;2023-04-26T03:25:34;17.13;;;10.20;;
3177;SDS011;38141;42.666;23.344;2023-04-26T03:28:01;18.23;;;10.70;;
3177;SDS011;38141;42.666;23.344;2023-04-26T03:30:28;16.43;;;9.63;;
3177;SDS011;38141;42.666;23.344;2023-04-26T03:32:55;19.23;;;10.33;;
3177;SDS011;38141;42.666;23.344;2023-04-26T03:35:22;18.40;;;10.93;;
3177;SDS011;38141;42.666;23.344;2023-04-26T03:37:50;19.43;;;11.13;;
3177;SDS011;38141;42.666;23.344;2023-04-26T03:40:17;20.90;;;10.83;;
3177;SDS011;38141;42.666;23.344;2023-04-26T03:42:43;17.50;;;10.23;;
3177;SDS011;38141;42.666;23.344;2023-04-26T03:45:10;22.87;;;11.00;;
3177;SDS011;38141;42.666;23.344;2023-04-26T03:47:37;16.93;;;10.30;;
3177;SDS011;38141;42.666;23.344;2023-04-26T03:50:05;18.63;;;11.33;;
3177;SDS011;38141;42.666;23.344;2023-04-26T03:52:33;17.60;;;10.30;;
3177;SDS011;38141;42.666;23.344;2023-04-26T03:55:01;18.50;;;9.00;;
3177;SDS011;38141;42.666;23.344;2023-04-26T03:57:28;21.10;;;10.63;;
3177;SDS011;38141;42.666;23.344;2023-04-26T03:59:55;19.33;;;10.80;;
3177;SDS011;38141;42.666;23.344;2023-04-26T04:02:24;18.10;;;10.10;;
3177;SDS011;38141;42.666;23.344;2023-04-26T04:04:51;17.20;;;10.33;;
3177;SDS011;38141;42.666;23.344;2023-04-26T04:07:18;20.07;;;10.10;;
3177;SDS011;38141;42.666;23.344;2023-04-26T04:09:45;20.37;;;10.87;;
3177;SDS011;38141;42.666;23.344;2023-04-26T04:12:13;18.20;;;10.40;;
3177;SDS011;38141;42.666;23.344;2023-04-26T04:14:40;21.77;;;13.60;;
3177;SDS011;38141;42.666;23.344;2023-04-26T04:17:07;22.00;;;12.30;;
3177;SDS011;38141;42.666;23.344;2023-04-26T04:19:34;23.33;;;10.80;;
3177;SDS011;38141;42.666;23.344;2023-04-26T04:22:02;19.73;;;10.20;;
3177;SDS011;38141;42.666;23.344;2023-04-26T04:24:28;16.23;;;10.57;;
3177;SDS011;38141;42.666;23.344;2023-04-26T04:26:56;18.10;;;10.93;;
3177;SDS011;38141;42.666;23.344;2023-04-26T04:29:26;21.20;;;11.60;;
3177;SDS011;38141;42.666;23.344;2023-04-26T04:31:53;21.20;;;11.57;;
3177;SDS011;38141;42.666;23.344;2023-04-26T04:34:20;24.80;;;12.57;;
3177;SDS011;38141;42.666;23.344;2023-04-26T04:36:48;19.80;;;11.83;;
3177;SDS011;38141;42.666;23.344;2023-04-26T04:39:15;23.30;;;12.87;;
3177;SDS011;38141;42.666;23.344;2023-04-26T04:41:42;30.27;;;13.60;;
3177;SDS011;38141;42.666;23.344;2023-04-26T04:44:12;20.93;;;12.20;;
3177;SDS011;38141;42.666;23.344;2023-04-26T04:46:41;23.07;;;13.77;;
3177;SDS011;38141;42.666;23.344;2023-04-26T04:49:09;22.57;;;12.47;;
3177;SDS011;38141;42.666;23.344;2023-04-26T04:51:37;23.67;;;12.77;;
3177;SDS011;38141;42.666;23.344;2023-04-26T04:54:08;23.37;;;13.23;;
3177;SDS011;38141;42.666;23.344;2023-04-26T04:56:36;20.30;;;11.93;;
3177;SDS011;38141;42.666;23.344;2023-04-26T04:59:03;22.93;;;12.47;;
3177;SDS011;38141;42.666;23.344;2023-04-26T05:01:30;21.87;;;11.90;;
3177;SDS011;38141;42.666;23.344;2023-04-26T05:03:59;20.93;;;11.30;;
3177;SDS011;38141;42.666;23.344;2023-04-26T05:06:26;20.80;;;12.07;;
3177;SDS011;38141;42.666;23.344;2023-04-26T05:08:53;23.10;;;12.87;;
3177;SDS011;38141;42.666;23.344;2023-04-26T05:11:20;25.80;;;13.45;;
3177;SDS011;38141;42.666;23.344;2023-04-26T05:13:47;22.87;;;13.13;;
3177;SDS011;38141;42.666;23.344;2023-04-26T05:16:14;22.20;;;13.40;;
3177;SDS011;38141;42.666;23.344;2023-04-26T05:18:41;22.13;;;14.17;;
3177;SDS011;38141;42.666;23.344;2023-04-26T05:21:09;23.03;;;13.23;;
3177;SDS011;38141;42.666;23.344;2023-04-26T05:23:36;19.70;;;11.87;;
3177;SDS011;38141;42.666;23.344;2023-04-26T05:26:03;17.03;;;10.13;;
3177;SDS011;38141;42.666;23.344;2023-04-26T05:28:31;19.83;;;11.30;;
3177;SDS011;38141;42.666;23.344;2023-04-26T05:30:58;20.10;;;11.30;;
3177;SDS011;38141;42.666;23.344;2023-04-26T05:33:26;15.67;;;8.77;;
3177;SDS011;38141;42.666;23.344;2023-04-26T05:35:53;15.60;;;10.10;;
3177;SDS011;38141;42.666;23.344;2023-04-26T05:38:23;18.07;;;12.20;;
3177;SDS011;38141;42.666;23.344;2023-04-26T05:40:50;14.80;;;10.50;;
3177;SDS011;38141;42.666;23.344;2023-04-26T05:43:17;16.43;;;8.67;;
3177;SDS011;38141;42.666;23.344;2023-04-26T05:45:49;15.50;;;9.47;;
3177;SDS011;38141;42.666;23.344;2023-04-26T05:48:17;9.30;;;6.93;;
3177;SDS011;38141;42.666;23.344;2023-04-26T05:50:43;12.80;;;6.47;;
3177;SDS011;38141;42.666;23.344;2023-04-26T05:53:11;14.73;;;6.53;;
3177;SDS011;38141;42.666;23.344;2023-04-26T05:55:39;11.00;;;6.10;;
3177;SDS011;38141;42.666;23.344;2023-04-26T05:58:06;10.97;;;6.50;;
3177;SDS011;38141;42.666;23.344;2023-04-26T06:00:33;9.97;;;5.90;;
3177;SDS011;38141;42.666;23.344;2023-04-26T06:03:01;7.70;;;5.57;;
3177;SDS011;38141;42.666;23.344;2023-04-26T06:05:28;9.83;;;6.80;;
3177;SDS011;38141;42.666;23.344;2023-04-26T06:07:55;8.47;;;6.90;;
3177;SDS011;38141;42.666;23.344;2023-04-26T06:10:21;7.57;;;6.13;;
3177;SDS011;38141;42.666;23.344;2023-04-26T06:12:50;6.60;;;5.67;;
3177;SDS011;38141;42.666;23.344;2023-04-26T06:15:16;8.53;;;5.23;;
3177;SDS011;38141;42.666;23.344;2023-04-26T06:17:43;9.33;;;5.50;;
3177;SDS011;38141;42.666;23.344;2023-04-26T06:20:10;9.03;;;5.40;;
3177;SDS011;38141;42.666;23.344;2023-04-26T06:22:37;7.43;;;5.90;;
3177;SDS011;38141;42.666;23.344;2023-04-26T06:25:05;10.47;;;5.80;;
3177;SDS011;38141;42.666;23.344;2023-04-26T06:27:32;7.27;;;5.97;;
3177;SDS011;38141;42.666;23.344;2023-04-26T06:30:01;8.13;;;5.70;;
3177;SDS011;38141;42.666;23.344;2023-04-26T06:32:28;11.03;;;6.20;;
3177;SDS011;38141;42.666;23.344;2023-04-26T06:34:54;9.57;;;5.70;;
3177;SDS011;38141;42.666;23.344;2023-04-26T06:37:21;7.93;;;6.50;;
3177;SDS011;38141;42.666;23.344;2023-04-26T06:39:48;8.10;;;5.83;;
3177;SDS011;38141;42.666;23.344;2023-04-26T06:42:15;8.30;;;5.30;;
3177;SDS011;38141;42.666;23.344;2023-04-26T06:44:42;7.83;;;5.30;;
3177;SDS011;38141;42.666;23.344;2023-04-26T06:47:10;8.00;;;5.93;;
3177;SDS011;38141;42.666;23.344;2023-04-26T06:49:36;7.97;;;6.27;;
3177;SDS011;38141;42.666;23.344;2023-04-26T06:52:03;5.93;;;5.17;;
3177;SDS011;38141;42.666;23.344;2023-04-26T06:54:31;8.40;;;6.07;;
3177;SDS011;38141;42.666;23.344;2023-04-26T06:56:58;6.63;;;5.50;;
3177;SDS011;38141;42.666;23.344;2023-04-26T06:59:25;6.13;;;5.47;;
3177;SDS011;38141;42.666;23.344;2023-04-26T07:01:53;7.20;;;5.57;;
3177;SDS011;38141;42.666;23.344;2023-04-26T07:04:21;8.33;;;7.27;;
3177;SDS011;38141;42.666;23.344;2023-04-26T07:06:48;6.63;;;5.97;;
3177;SDS011;38141;42.666;23.344;2023-04-26T07:09:15;7.60;;;5.77;;
3177;SDS011;38141;42.666;23.344;2023-04-26T07:11:44;7.30;;;5.63;;
3177;SDS011;38141;42.666;23.344;2023-04-26T07:14:11;7.00;;;6.27;;
3177;SDS011;38141;42.666;23.344;2023-04-26T07:16:38;9.70;;;5.90;;
3177;SDS011;38141;42.666;23.344;2023-04-26T07:19:05;6.57;;;5.70;;
3177;SDS011;38141;42.666;23.344;2023-04-26T07:21:33;10.27;;;6.43;;
3177;SDS011;38141;42.666;23.344;2023-04-26T07:24:00;7.03;;;5.73;;
3177;SDS011;38141;42.666;23.344;2023-04-26T07:26:27;8.00;;;5.83;;
3177;SDS011;38141;42.666;23.344;2023-04-26T07:28:54;7.10;;;5.40;;
3177;SDS011;38141;42.666;23.344;2023-04-26T07:31:20;7.63;;;6.37;;
3177;SDS011;38141;42.666;23.344;2023-04-26T07:33:47;5.90;;;5.30;;
3177;SDS011;38141;42.666;23.344;2023-04-26T07:36:14;6.67;;;5.83;;
3177;SDS011;38141;42.666;23.344;2023-04-26T07:38:43;6.93;;;5.67;;
3177;SDS011;38141;42.666;23.344;2023-04-26T07:41:09;7.00;;;5.47;;
3177;SDS011;38141;42.666;23.344;2023-04-26T07:43:37;6.13;;;4.93;;
3177;SDS011;38141;42.666;23.344;2023-04-26T07:46:04;5.67;;;4.90;;
3177;SDS011;38141;42.666;23.344;2023-04-26T07:48:31;5.37;;;4.87;;
3177;SDS011;38141;42.666;23.344;2023-04-26T07:51:05;6.50;;;4.57;;
3177;SDS011;38141;42.666;23.344;2023-04-26T07:53:33;6.53;;;5.17;;
3177;SDS011;38141;42.666;23.344;2023-04-26T07:56:02;6.20;;;5.17;;
3177;SDS011;38141;42.666;23.344;2023-04-26T07:58:30;6.20;;;4.93;;
3177;SDS011;38141;42.666;23.344;2023-04-26T08:00:58;6.03;;;4.90;;
3177;SDS011;38141;42.666;23.344;2023-04-26T08:03:24;7.63;;;5.53;;
3177;SDS011;38141;42.666;23.344;2023-04-26T08:05:52;5.20;;;4.70;;
3177;SDS011;38141;42.666;23.344;2023-04-26T08:08:19;9.37;;;5.20;;
3177;SDS011;38141;42.666;23.344;2023-04-26T08:10:47;6.57;;;5.10;;
3177;SDS011;38141;42.666;23.344;2023-04-26T08:13:15;9.90;;;5.60;;
3177;SDS011;38141;42.666;23.344;2023-04-26T08:15:42;6.30;;;5.40;;
3177;SDS011;38141;42.666;23.344;2023-04-26T08:18:09;8.33;;;5.57;;
3177;SDS011;38141;42.666;23.344;2023-04-26T08:20:36;7.53;;;6.07;;
3177;SDS011;38141;42.666;23.344;2023-04-26T08:23:03;6.47;;;5.37;;
3177;SDS011;38141;42.666;23.344;2023-04-26T08:25:31;8.20;;;5.70;;
3177;SDS011;38141;42.666;23.344;2023-04-26T08:27:59;6.87;;;5.10;;
3177;SDS011;38141;42.666;23.344;2023-04-26T08:30:27;7.10;;;5.50;;
3177;SDS011;38141;42.666;23.344;2023-04-26T08:32:54;6.33;;;5.40;;
3177;SDS011;38141;42.666;23.344;2023-04-26T08:35:20;6.30;;;5.53;;
3177;SDS011;38141;42.666;23.344;2023-04-26T08:37:47;17.13;;;6.53;;
3177;SDS011;38141;42.666;23.344;2023-04-26T08:40:14;6.30;;;5.43;;
3177;SDS011;38141;42.666;23.344;2023-04-26T08:42:48;6.17;;;5.07;;
3177;SDS011;38141;42.666;23.344;2023-04-26T08:45:16;5.90;;;5.30;;
3177;SDS011;38141;42.666;23.344;2023-04-26T08:47:46;6.50;;;4.87;;
3177;SDS011;38141;42.666;23.344;2023-04-26T08:50:14;7.20;;;5.13;;
3177;SDS011;38141;42.666;23.344;2023-04-26T08:52:41;5.67;;;4.93;;
3177;SDS011;38141;42.666;23.344;2023-04-26T08:55:09;5.33;;;4.83;;
3177;SDS011;38141;42.666;23.344;2023-04-26T08:57:37;10.73;;;6.10;;
3177;SDS011;38141;42.666;23.344;2023-04-26T09:00:05;7.20;;;5.13;;
3177;SDS011;38141;42.666;23.344;2023-04-26T09:02:36;9.10;;;4.90;;
3177;SDS011;38141;42.666;23.344;2023-04-26T09:05:07;5.47;;;4.70;;
3177;SDS011;38141;42.666;23.344;2023-04-26T09:07:36;5.40;;;4.23;;
3177;SDS011;38141;42.666;23.344;2023-04-26T09:10:06;5.53;;;4.40;;
3177;SDS011;38141;42.666;23.344;2023-04-26T09:12:34;6.47;;;4.97;;
3177;SDS011;38141;42.666;23.344;2023-04-26T09:15:01;4.90;;;4.10;;
3177;SDS011;38141;42.666;23.344;2023-04-26T09:17:28;4.70;;;3.73;;
3177;SDS011;38141;42.666;23.344;2023-04-26T09:19:56;4.60;;;4.20;;
3177;SDS011;38141;42.666;23.344;2023-04-26T09:22:29;5.07;;;4.57;;
3177;SDS011;38141;42.666;23.344;2023-04-26T09:24:56;6.37;;;4.50;;
3177;SDS011;38141;42.666;23.344;2023-04-26T09:27:30;5.80;;;4.93;;
3177;SDS011;38141;42.666;23.344;2023-04-26T09:30:01;4.70;;;4.10;;
3177;SDS011;38141;42.666;23.344;2023-04-26T09:35:17;5.53;;;4.33;;
3177;SDS011;38141;42.666;23.344;2023-04-26T09:37:53;4.30;;;3.80;;
3177;SDS011;38141;42.666;23.344;2023-04-26T09:40:22;6.33;;;3.60;;
3177;SDS011;38141;42.666;23.344;2023-04-26T09:42:58;4.47;;;3.87;;
3177;SDS011;38141;42.666;23.344;2023-04-26T09:45:26;5.73;;;5.10;;
3177;SDS011;38141;42.666;23.344;2023-04-26T09:47:54;5.90;;;4.27;;
3177;SDS011;38141;42.666;23.344;2023-04-26T09:50:37;5.07;;;3.57;;
3177;SDS011;38141;42.666;23.344;2023-04-26T09:53:05;4.03;;;3.63;;
3177;SDS011;38141;42.666;23.344;2023-04-26T09:55:32;5.57;;;4.23;;
3177;SDS011;38141;42.666;23.344;2023-04-26T09:58:00;7.20;;;4.30;;
3177;SDS011;38141;42.666;23.344;2023-04-26T10:00:34;5.30;;;3.93;;
3177;SDS011;38141;42.666;23.344;2023-04-26T10:03:03;4.20;;;3.53;;
3177;SDS011;38141;42.666;23.344;2023-04-26T10:05:32;6.13;;;3.60;;
3177;SDS011;38141;42.666;23.344;2023-04-26T10:07:59;3.47;;;3.17;;
3177;SDS011;38141;42.666;23.344;2023-04-26T10:10:29;4.30;;;3.73;;
3177;SDS011;38141;42.666;23.344;2023-04-26T10:12:56;5.10;;;3.57;;
3177;SDS011;38141;42.666;23.344;2023-04-26T10:15:23;3.53;;;3.23;;
3177;SDS011;38141;42.666;23.344;2023-04-26T10:17:51;3.83;;;3.13;;
3177;SDS011;38141;42.666;23.344;2023-04-26T10:23:56;3.03;;;2.73;;
3177;SDS011;38141;42.666;23.344;2023-04-26T10:29:16;3.07;;;2.50;;
3177;SDS011;38141;42.666;23.344;2023-04-26T10:34:33;6.50;;;3.03;;
3177;SDS011;38141;42.666;23.344;2023-04-26T10:37:08;3.00;;;2.70;;
3177;SDS011;38141;42.666;23.344;2023-04-26T10:39:36;3.07;;;2.50;;
3177;SDS011;38141;42.666;23.344;2023-04-26T10:42:23;4.57;;;2.70;;
3177;SDS011;38141;42.666;23.344;2023-04-26T10:44:52;4.10;;;3.00;;
3177;SDS011;38141;42.666;23.344;2023-04-26T10:47:24;3.20;;;2.80;;
3177;SDS011;38141;42.666;23.344;2023-04-26T10:50:01;3.40;;;2.70;;
3177;SDS011;38141;42.666;23.344;2023-04-26T10:52:33;3.10;;;2.80;;
3177;SDS011;38141;42.666;23.344;2023-04-26T10:55:02;3.03;;;2.73;;
3177;SDS011;38141;42.666;23.344;2023-04-26T11:00:25;2.87;;;2.50;;
3177;SDS011;38141;42.666;23.344;2023-04-26T11:03:08;3.10;;;2.80;;
3177;SDS011;38141;42.666;23.344;2023-04-26T11:05:59;3.33;;;3.03;;
3177;SDS011;38141;42.666;23.344;2023-04-26T11:08:36;3.10;;;2.33;;
3177;SDS011;38141;42.666;23.344;2023-04-26T11:11:08;3.10;;;2.83;;
3177;SDS011;38141;42.666;23.344;2023-04-26T11:13:40;3.70;;;3.30;;
3177;SDS011;38141;42.666;23.344;2023-04-26T11:16:10;6.53;;;2.63;;
3177;SDS011;38141;42.666;23.344;2023-04-26T11:18:39;3.10;;;2.80;;
3177;SDS011;38141;42.666;23.344;2023-04-26T11:21:13;5.50;;;3.37;;
3177;SDS011;38141;42.666;23.344;2023-04-26T11:23:51;2.70;;;2.47;;
3177;SDS011;38141;42.666;23.344;2023-04-26T11:26:22;2.87;;;2.67;;
3177;SDS011;38141;42.666;23.344;2023-04-26T11:28:51;2.67;;;2.37;;
3177;SDS011;38141;42.666;23.344;2023-04-26T11:31:22;3.90;;;2.93;;
3177;SDS011;38141;42.666;23.344;2023-04-26T11:33:51;4.80;;;2.70;;
3177;SDS011;38141;42.666;23.344;2023-04-26T11:36:20;4.30;;;3.10;;
3177;SDS011;38141;42.666;23.344;2023-04-26T11:38:49;3.17;;;2.87;;
3177;SDS011;38141;42.666;23.344;2023-04-26T11:41:19;4.03;;;2.80;;
3177;SDS011;38141;42.666;23.344;2023-04-26T11:43:57;8.60;;;3.23;;
3177;SDS011;38141;42.666;23.344;2023-04-26T11:46:27;3.83;;;2.93;;
3177;SDS011;38141;42.666;23.344;2023-04-26T11:49:01;4.47;;;2.63;;
3177;SDS011;38141;42.666;23.344;2023-04-26T11:51:28;4.80;;;3.40;;
3177;SDS011;38141;42.666;23.344;2023-04-26T11:53:58;5.53;;;3.27;;
3177;SDS011;38141;42.666;23.344;2023-04-26T11:56:29;6.07;;;3.50;;
3177;SDS011;38141;42.666;23.344;2023-04-26T11:58:57;3.60;;;3.30;;
3177;SDS011;38141;42.666;23.344;2023-04-26T12:01:25;4.23;;;3.23;;
3177;SDS011;38141;42.666;23.344;2023-04-26T12:03:53;3.53;;;3.20;;
3177;SDS011;38141;42.666;23.344;2023-04-26T12:06:24;3.07;;;2.83;;
3177;SDS011;38141;42.666;23.344;2023-04-26T12:08:55;4.10;;;3.60;;
3177;SDS011;38141;42.666;23.344;2023-04-26T12:11:22;3.70;;;3.10;;
3177;SDS011;38141;42.666;23.344;2023-04-26T12:13:49;4.93;;;3.43;;
3177;SDS011;38141;42.666;23.344;2023-04-26T12:16:17;3.10;;;2.80;;
3177;SDS011;38141;42.666;23.344;2023-04-26T12:18:48;4.63;;;3.00;;
3177;SDS011;38141;42.666;23.344;2023-04-26T12:21:16;3.30;;;3.00;;
3177;SDS011;38141;42.666;23.344;2023-04-26T12:23:43;7.03;;;3.07;;
3177;SDS011;38141;42.666;23.344;2023-04-26T12:26:12;7.00;;;2.73;;
3177;SDS011;38141;42.666;23.344;2023-04-26T12:28:39;3.40;;;3.10;;
3177;SDS011;38141;42.666;23.344;2023-04-26T12:31:06;3.40;;;3.10;;
3177;SDS011;38141;42.666;23.344;2023-04-26T12:33:35;4.60;;;3.17;;
3177;SDS011;38141;42.666;23.344;2023-04-26T12:36:05;6.67;;;2.90;;
3177;SDS011;38141;42.666;23.344;2023-04-26T12:38:33;3.33;;;3.03;;
3177;SDS011;38141;42.666;23.344;2023-04-26T12:41:00;3.50;;;3.17;;
3177;SDS011;38141;42.666;23.344;2023-04-26T12:43:27;3.40;;;2.80;;
3177;SDS011;38141;42.666;23.344;2023-04-26T12:45:54;5.43;;;3.13;;
3177;SDS011;38141;42.666;23.344;2023-04-26T12:48:21;3.57;;;2.90;;
3177;SDS011;38141;42.666;23.344;2023-04-26T12:50:49;4.57;;;3.40;;
3177;SDS011;38141;42.666;23.344;2023-04-26T12:53:16;4.73;;;3.37;;
3177;SDS011;38141;42.666;23.344;2023-04-26T12:55:43;5.73;;;4.07;;
3177;SDS011;38141;42.666;23.344;2023-04-26T12:58:10;3.93;;;3.07;;
3177;SDS011;38141;42.666;23.344;2023-04-26T13:00:37;3.27;;;2.97;;
3177;SDS011;38141;42.666;23.344;2023-04-26T13:03:04;3.97;;;2.80;;
3177;SDS011;38141;42.666;23.344;2023-04-26T13:05:31;3.43;;;3.10;;
3177;SDS011;38141;42.666;23.344;2023-04-26T13:08:02;5.83;;;3.10;;
3177;SDS011;38141;42.666;23.344;2023-04-26T13:10:28;4.37;;;3.13;;
3177;SDS011;38141;42.666;23.344;2023-04-26T13:12:57;5.27;;;3.70;;
3177;SDS011;38141;42.666;23.344;2023-04-26T13:15:23;4.47;;;3.50;;
3177;SDS011;38141;42.666;23.344;2023-04-26T13:17:51;14.73;;;4.67;;
3177;SDS011;38141;42.666;23.344;2023-04-26T13:20:18;5.87;;;3.70;;
3177;SDS011;38141;42.666;23.344;2023-04-26T13:22:45;4.23;;;3.83;;
3177;SDS011;38141;42.666;23.344;2023-04-26T13:25:13;3.90;;;3.60;;
3177;SDS011;38141;42.666;23.344;2023-04-26T13:27:42;7.70;;;5.10;;
3177;SDS011;38141;42.666;23.344;2023-04-26T13:30:09;5.60;;;5.00;;
3177;SDS011;38141;42.666;23.344;2023-04-26T13:32:36;6.27;;;4.10;;
3177;SDS011;38141;42.666;23.344;2023-04-26T13:35:03;4.00;;;3.60;;
3177;SDS011;38141;42.666;23.344;2023-04-26T13:37:31;6.20;;;5.20;;
3177;SDS011;38141;42.666;23.344;2023-04-26T13:39:58;4.70;;;3.33;;
3177;SDS011;38141;42.666;23.344;2023-04-26T13:42:26;6.20;;;4.40;;
3177;SDS011;38141;42.666;23.344;2023-04-26T13:44:53;3.40;;;3.10;;
3177;SDS011;38141;42.666;23.344;2023-04-26T13:47:20;4.57;;;3.50;;
3177;SDS011;38141;42.666;23.344;2023-04-26T13:49:46;3.83;;;3.53;;
3177;SDS011;38141;42.666;23.344;2023-04-26T13:52:16;3.77;;;3.37;;
3177;SDS011;38141;42.666;23.344;2023-04-26T13:54:43;5.03;;;4.53;;
3177;SDS011;38141;42.666;23.344;2023-04-26T13:57:09;8.80;;;5.00;;
3177;SDS011;38141;42.666;23.344;2023-04-26T13:59:38;7.67;;;4.80;;
3177;SDS011;38141;42.666;23.344;2023-04-26T14:02:05;5.27;;;4.77;;
3177;SDS011;38141;42.666;23.344;2023-04-26T14:04:32;11.67;;;8.50;;
3177;SDS011;38141;42.666;23.344;2023-04-26T14:06:59;5.37;;;4.23;;
3177;SDS011;38141;42.666;23.344;2023-04-26T14:09:25;5.77;;;5.17;;
3177;SDS011;38141;42.666;23.344;2023-04-26T14:11:52;6.20;;;5.50;;
3177;SDS011;38141;42.666;23.344;2023-04-26T14:14:19;6.10;;;5.03;;
3177;SDS011;38141;42.666;23.344;2023-04-26T14:16:47;9.23;;;5.23;;
3177;SDS011;38141;42.666;23.344;2023-04-26T14:19:15;6.47;;;5.17;;
3177;SDS011;38141;42.666;23.344;2023-04-26T14:21:42;5.20;;;4.80;;
3177;SDS011;38141;42.666;23.344;2023-04-26T14:24:08;6.57;;;5.20;;
3177;SDS011;38141;42.666;23.344;2023-04-26T14:26:36;6.03;;;5.43;;
3177;SDS011;38141;42.666;23.344;2023-04-26T14:29:02;7.07;;;6.33;;
3177;SDS011;38141;42.666;23.344;2023-04-26T14:31:31;8.93;;;5.60;;
3177;SDS011;38141;42.666;23.344;2023-04-26T14:34:00;5.83;;;5.23;;
3177;SDS011;38141;42.666;23.344;2023-04-26T14:36:26;7.33;;;5.97;;
3177;SDS011;38141;42.666;23.344;2023-04-26T14:38:53;6.03;;;5.30;;
3177;SDS011;38141;42.666;23.344;2023-04-26T14:41:20;8.43;;;5.87;;
3177;SDS011;38141;42.666;23.344;2023-04-26T14:43:47;7.13;;;5.53;;
3177;SDS011;38141;42.666;23.344;2023-04-26T14:46:14;7.23;;;6.03;;
3177;SDS011;38141;42.666;23.344;2023-04-26T14:48:41;8.40;;;6.50;;
3177;SDS011;38141;42.666;23.344;2023-04-26T14:51:10;8.53;;;6.13;;
3177;SDS011;38141;42.666;23.344;2023-04-26T14:53:36;7.33;;;6.63;;
3177;SDS011;38141;42.666;23.344;2023-04-26T14:56:04;7.10;;;6.23;;
3177;SDS011;38141;42.666;23.344;2023-04-26T14:58:31;12.60;;;6.70;;